Time;durP1;ratioP1;P1;durP2;ratioP2;P2;SDS_P1;SDS_P2;PMS_P1;PMS_P2;Temp;Humidity;BMP_temperature;BMP_pressure;BME280_temperature;BME280_humidity;BME280_pressure;Samples;Min_cycle;Max_cycle;Signal;HPM_P1;HPM_P2
2022/06/21 00:02:17;;;;;;;0.10;0.10;;;;;;;21.96;47.94;101293.00;5106704;28;20462;-40
2022/06/21 00:04:43;;;;;;;0.10;0.10;;;;;;;21.95;47.88;101302.44;5096278;27;20114;-40
2022/06/21 00:07:12;;;;;;;0.10;0.10;;;;;;;21.96;47.91;101296.59;5110173;28;20049;-37
2022/06/21 00:09:37;;;;;;;0.10;0.10;;;;;;;21.96;47.99;101293.00;5107130;28;20071;-35
2022/06/21 00:12:04;;;;;;;0.10;0.10;;;;;;;21.95;48.17;101285.78;5124740;27;20040;-39
2022/06/21 00:14:29;;;;;;;0.10;0.10;;;;;;;21.95;47.90;101283.84;5128298;27;20501;-39
2022/06/21 00:16:55;;;;;;;0.10;0.10;;;;;;;21.96;48.04;101284.66;5126104;27;20036;-37
2022/06/21 00:19:23;;;;;;;0.10;0.10;;;;;;;21.96;48.17;101284.66;5120681;27;20468;-39
2022/06/21 00:21:49;;;;;;;0.10;0.10;;;;;;;21.96;48.01;101285.50;5103737;27;20083;-40
2022/06/21 00:24:16;;;;;;;0.10;0.10;;;;;;;21.96;47.96;101290.22;5121951;27;20382;-41
2022/06/21 00:26:43;;;;;;;0.20;0.20;;;;;;;21.95;48.01;101289.38;5130156;27;20086;-39
2022/06/21 00:29:09;;;;;;;0.10;0.10;;;;;;;21.96;47.93;101281.91;5124700;27;20163;-41
2022/06/21 00:31:36;;;;;;;0.20;0.20;;;;;;;21.96;48.05;101290.22;5100077;27;20079;-40
2022/06/21 00:34:19;;;;;;;0.10;0.10;;;;;;;21.95;48.00;101294.94;5123085;27;20134;-40
2022/06/21 00:36:46;;;;;;;0.10;0.10;;;;;;;21.94;47.85;101286.91;5104200;27;20138;-41
2022/06/21 00:39:14;;;;;;;0.10;0.10;;;;;;;21.95;48.01;101291.34;5120531;27;20131;-37
2022/06/21 00:41:43;;;;;;;0.10;0.10;;;;;;;21.95;48.31;101292.16;5110866;28;20066;-40
2022/06/21 00:44:15;;;;;;;0.10;0.10;;;;;;;21.95;48.01;101297.72;5107013;27;20085;-37
2022/06/21 00:46:47;;;;;;;0.10;0.10;;;;;;;21.94;48.00;101284.97;5105144;27;20079;-40
2022/06/21 00:49:19;;;;;;;0.10;0.10;;;;;;;21.95;47.98;101280.25;5108263;27;21238;-37
2022/06/21 00:51:45;;;;;;;0.10;0.10;;;;;;;21.95;47.98;101285.78;5126357;27;20131;-41
2022/06/21 00:54:17;;;;;;;0.10;0.10;;;;;;;21.93;48.03;101283.28;5120571;27;20047;-40
2022/06/21 00:56:51;;;;;;;0.10;0.10;;;;;;;21.95;48.08;101292.16;5125424;27;20080;-41
2022/06/21 00:59:20;;;;;;;0.10;0.10;;;;;;;21.93;48.18;101286.06;5111999;27;20122;-40
2022/06/21 01:01:47;;;;;;;0.10;0.10;;;;;;;21.94;48.16;101287.75;5107247;27;20044;-39
2022/06/21 01:04:22;;;;;;;0.10;0.10;;;;;;;21.95;48.16;101291.34;5108389;28;20492;-38
2022/06/21 01:06:52;;;;;;;0.10;0.10;;;;;;;21.95;48.07;101283.03;5106155;28;20090;-39
2022/06/21 01:09:22;;;;;;;0.10;0.10;;;;;;;21.95;48.10;101274.69;5125643;27;20047;-40
2022/06/21 01:11:51;;;;;;;0.10;0.10;;;;;;;21.95;48.16;101280.25;5113651;27;20093;-39
2022/06/21 01:14:18;;;;;;;0.10;0.10;;;;;;;21.94;48.27;101284.16;5127508;27;20083;-37
2022/06/21 01:16:43;;;;;;;0.10;0.10;;;;;;;21.94;48.18;101275.81;5122925;27;20159;-41
2022/06/21 01:19:15;;;;;;;0.10;0.10;;;;;;;21.95;48.11;101275.53;5127528;27;20047;-39
2022/06/21 01:21:43;;;;;;;0.10;0.10;;;;;;;21.94;48.28;101264.72;5126329;27;20179;-40
2022/06/21 01:24:23;;;;;;;0.10;0.10;;;;;;;21.93;48.28;101260.28;5132783;27;20071;-40
2022/06/21 01:26:55;;;;;;;0.10;0.10;;;;;;;21.94;48.14;101243.38;5122841;27;20048;-39
2022/06/21 01:29:25;;;;;;;0.10;0.10;;;;;;;21.95;48.08;101245.03;5126531;27;20047;-37
2022/06/21 01:31:51;;;;;;;0.10;0.10;;;;;;;21.94;48.04;101239.78;5107351;28;20073;-40
2022/06/21 01:34:19;;;;;;;0.10;0.10;;;;;;;21.94;48.10;101235.06;5132215;27;20061;-37
2022/06/21 01:36:47;;;;;;;0.10;0.10;;;;;;;21.95;48.17;101244.19;5126037;27;20078;-40
2022/06/21 01:39:20;;;;;;;0.10;0.10;;;;;;;21.94;48.08;101250.88;5128610;27;20086;-40
2022/06/21 01:41:52;;;;;;;0.15;0.15;;;;;;;21.94;48.33;101250.88;5127741;27;20131;-41
2022/06/21 01:44:25;;;;;;;0.10;0.10;;;;;;;21.94;48.11;101248.09;5108672;28;20086;-38
2022/06/21 01:46:50;;;;;;;0.10;0.10;;;;;;;21.93;48.15;101252.78;5106871;27;20402;-39
2022/06/21 01:49:21;;;;;;;0.20;0.20;;;;;;;21.93;48.17;101255.56;5124119;27;20047;-40
2022/06/21 01:52:06;;;;;;;0.10;0.10;;;;;;;21.94;48.17;101245.31;5109972;27;20131;-41
2022/06/21 01:54:36;;;;;;;0.10;0.10;;;;;;;21.94;48.27;101242.56;5109537;28;20321;-38
2022/06/21 01:57:02;;;;;;;0.10;0.10;;;;;;;21.93;48.41;101238.09;5093876;28;20071;-41
2022/06/21 01:59:31;;;;;;;0.10;0.10;;;;;;;21.93;48.17;101235.31;5128531;27;20040;-40
2022/06/21 02:02:07;;;;;;;0.10;0.10;;;;;;;21.93;48.19;101235.31;5122150;27;20062;-39
2022/06/21 02:04:41;;;;;;;0.10;0.10;;;;;;;21.93;48.36;101229.78;5094212;28;20134;-39
2022/06/21 02:07:08;;;;;;;0.10;0.10;;;;;;;21.92;48.32;101228.97;5099840;27;20122;-38
2022/06/21 02:09:38;;;;;;;0.10;0.10;;;;;;;21.92;48.24;101223.41;5126760;27;20133;-40
2022/06/21 02:12:07;;;;;;;0.10;0.10;;;;;;;21.92;48.32;101234.50;5106122;27;20085;-41
2022/06/21 02:14:38;;;;;;;0.10;0.10;;;;;;;21.92;48.32;101234.50;5088314;27;20124;-38
2022/06/21 02:17:11;;;;;;;0.10;0.10;;;;;;;21.93;48.35;101246.41;5106842;27;20067;-40
2022/06/21 02:19:42;;;;;;;0.10;0.10;;;;;;;21.93;48.27;101246.41;5106209;28;20426;-41
2022/06/21 02:22:13;;;;;;;0.10;0.10;;;;;;;21.92;48.34;101236.44;5132176;27;20101;-40
2022/06/21 02:24:39;;;;;;;0.10;0.10;;;;;;;21.92;48.37;101237.28;5120303;27;20078;-38
2022/06/21 02:27:05;;;;;;;0.10;0.10;;;;;;;21.92;48.40;101231.72;5112059;27;20553;-40
2022/06/21 02:29:31;;;;;;;0.10;0.10;;;;;;;21.93;48.25;101227.00;5130821;27;20058;-41
2022/06/21 02:31:58;;;;;;;0.10;0.10;;;;;;;21.92;48.44;101239.22;5125299;27;20083;-38
2022/06/21 02:34:31;;;;;;;0.10;0.10;;;;;;;21.92;48.39;101236.44;5124174;27;20145;-39
2022/06/21 02:36:58;;;;;;;0.10;0.10;;;;;;;21.91;48.36;101224.53;5111015;27;20094;-39
2022/06/21 02:39:27;;;;;;;0.10;0.10;;;;;;;21.91;48.31;101232.84;5121256;27;20040;-41
2022/06/21 02:41:57;;;;;;;0.15;0.15;;;;;;;21.91;48.29;101224.53;5102530;27;20090;-40
2022/06/21 02:44:28;;;;;;;0.10;0.10;;;;;;;21.92;48.12;101233.69;5106118;27;20137;-37
2022/06/21 02:46:57;;;;;;;0.10;0.10;;;;;;;21.91;48.46;101234.81;5124445;27;20530;-36
2022/06/21 02:49:26;;;;;;;0.10;0.10;;;;;;;21.91;48.39;101230.09;5109702;28;20126;-40
2022/06/21 02:51:56;;;;;;;0.10;0.10;;;;;;;21.92;48.38;101228.13;5106062;27;20128;-39
2022/06/21 02:54:27;;;;;;;0.10;0.10;;;;;;;21.91;48.43;101224.53;5101384;28;20071;-38
2022/06/21 02:57:03;;;;;;;0.10;0.10;;;;;;;21.91;48.50;101218.16;5114716;27;20078;-39
2022/06/21 02:59:32;;;;;;;0.10;0.10;;;;;;;21.91;48.39;101221.78;5123633;27;20124;-40
2022/06/21 03:02:00;;;;;;;0.20;0.20;;;;;;;21.91;48.30;101224.53;5108561;27;20073;-38
2022/06/21 03:04:48;;;;;;;0.10;0.10;;;;;;;21.91;48.38;101220.94;5128025;27;20130;-38
2022/06/21 03:07:16;;;;;;;0.10;0.10;;;;;;;21.91;48.43;101220.94;5123422;27;20043;-40
2022/06/21 03:09:42;;;;;;;0.10;0.10;;;;;;;21.91;48.47;101219.00;5133413;27;20152;-38
2022/06/21 03:12:17;;;;;;;0.10;0.10;;;;;;;21.91;48.34;101212.63;5124523;27;20047;-39
2022/06/21 03:14:44;;;;;;;0.10;0.10;;;;;;;21.91;48.33;101207.09;5104129;27;20075;-39
2022/06/21 03:17:10;;;;;;;0.10;0.10;;;;;;;21.91;48.42;101198.75;5128675;27;20157;-39
2022/06/21 03:19:39;;;;;;;0.10;0.10;;;;;;;21.90;48.45;101195.16;5103851;28;20531;-40
2022/06/21 03:22:23;;;;;;;0.10;0.10;;;;;;;21.90;48.55;101192.41;5105133;27;20483;-39
2022/06/21 03:24:52;;;;;;;0.10;0.10;;;;;;;21.90;48.53;101194.34;5112216;28;20082;-41
2022/06/21 03:27:27;;;;;;;0.10;0.10;;;;;;;21.90;48.54;101197.94;5109320;27;20485;-39
2022/06/21 03:29:54;;;;;;;0.10;0.10;;;;;;;21.91;48.47;101212.63;5125727;27;20079;-41
2022/06/21 03:32:20;;;;;;;0.10;0.10;;;;;;;21.91;48.52;101212.63;5129027;27;20083;-39
2022/06/21 03:34:47;;;;;;;0.10;0.10;;;;;;;21.90;48.51;101209.03;5122109;27;20412;-40
2022/06/21 03:37:12;;;;;;;0.10;0.10;;;;;;;21.90;48.50;101206.25;5094349;27;20158;-40
2022/06/21 03:42:29;;;;;;;0.10;0.10;;;;;;;21.90;48.40;101211.81;5110502;27;20074;-37
2022/06/21 03:44:59;;;;;;;0.20;0.20;;;;;;;21.91;48.33;101212.63;5120943;27;20535;-39
2022/06/21 03:47:31;;;;;;;0.10;0.10;;;;;;;21.90;48.45;101217.34;5113131;27;20177;-40
2022/06/21 03:50:17;;;;;;;0.10;0.10;;;;;;;21.90;48.62;101214.56;5128263;27;20090;-40
2022/06/21 03:52:47;;;;;;;0.10;0.10;;;;;;;21.90;48.64;101222.06;5114952;27;20043;-36
2022/06/21 03:55:37;;;;;;;0.10;0.10;;;;;;;21.89;48.63;101217.63;5126223;27;20086;-38
2022/06/21 03:58:09;;;;;;;0.10;0.10;;;;;;;21.88;48.63;101219.56;5109521;27;20505;-39
2022/06/21 04:00:47;;;;;;;0.10;0.10;;;;;;;21.89;48.53;101223.16;5128577;27;20086;-41
2022/06/21 04:03:24;;;;;;;0.10;0.10;;;;;;;21.89;48.60;101232.34;5131359;27;20078;-41
2022/06/21 04:05:58;;;;;;;0.10;0.10;;;;;;;21.89;48.39;101242.56;5107762;27;20079;-39
2022/06/21 04:08:28;;;;;;;0.10;0.10;;;;;;;21.90;48.45;101233.16;5107254;27;20047;-41
2022/06/21 04:11:07;;;;;;;0.10;0.10;;;;;;;21.89;48.58;101228.72;5125609;27;21198;-37
2022/06/21 04:13:42;;;;;;;0.10;0.10;;;;;;;21.90;48.56;101235.94;5117170;27;20044;-41
2022/06/21 04:16:19;;;;;;;0.10;0.10;;;;;;;21.89;48.59;101229.56;5108099;27;20507;-40
2022/06/21 04:18:54;;;;;;;0.10;0.10;;;;;;;21.90;48.59;101222.06;5121695;27;20046;-40
2022/06/21 04:21:28;;;;;;;0.10;0.10;;;;;;;21.89;48.52;101235.13;5125647;27;20604;-39
2022/06/21 04:24:17;;;;;;;0.10;0.10;;;;;;;21.88;48.49;101235.38;5108145;27;20513;-39
2022/06/21 04:26:49;;;;;;;0.10;0.10;;;;;;;21.89;48.40;101246.19;5116974;27;20082;-40
2022/06/21 04:29:20;;;;;;;0.10;0.10;;;;;;;21.89;48.38;101243.44;5127283;27;20079;-39
2022/06/21 04:31:49;;;;;;;0.10;0.10;;;;;;;21.89;48.46;101240.66;5105341;28;20500;-38
2022/06/21 04:34:23;;;;;;;0.10;0.10;;;;;;;21.88;48.47;101236.19;5127457;27;20134;-40
2022/06/21 04:36:57;;;;;;;0.10;0.10;;;;;;;21.89;48.55;101231.47;5130768;27;20150;-37
2022/06/21 04:39:29;;;;;;;0.10;0.10;;;;;;;21.88;48.58;101232.59;5109202;27;20079;-37
2022/06/21 04:42:02;;;;;;;0.10;0.10;;;;;;;21.88;48.53;101230.66;5108568;27;20126;-38
2022/06/21 04:44:34;;;;;;;0.10;0.10;;;;;;;21.89;48.41;101231.47;5100579;28;20096;-41
2022/06/21 04:47:09;;;;;;;0.10;0.10;;;;;;;21.89;48.51;101218.47;5099693;27;20104;-39
2022/06/21 04:49:39;;;;;;;0.10;0.10;;;;;;;21.89;48.60;101214.84;5109464;28;20101;-39
2022/06/21 04:52:10;;;;;;;0.10;0.10;;;;;;;21.88;47.92;101211.25;5108127;27;20043;-39
2022/06/21 04:54:37;;;;;;;0.10;0.10;;;;;;;21.87;47.96;101217.91;5102909;28;20119;-40
2022/06/21 04:57:09;;;;;;;0.10;0.10;;;;;;;21.89;47.29;101212.06;5106763;27;20074;-39
2022/06/21 04:59:46;;;;;;;0.10;0.10;;;;;;;21.89;47.23;101212.06;5125099;27;20496;-40
2022/06/21 05:02:20;;;;;;;0.10;0.10;;;;;;;21.90;47.53;101213.75;5102135;27;20079;-40
2022/06/21 05:04:49;;;;;;;0.10;0.10;;;;;;;21.89;47.70;101217.63;5104095;28;20082;-39
2022/06/21 05:07:18;;;;;;;0.10;0.10;;;;;;;21.88;47.97;101216.78;5106247;28;20554;-37
2022/06/21 05:09:45;;;;;;;0.10;0.10;;;;;;;21.89;46.91;101214.84;5126495;27;20040;-39
2022/06/21 05:12:17;;;;;;;0.10;0.10;;;;;;;21.88;46.72;101214.03;5107842;27;20079;-40
2022/06/21 05:14:46;;;;;;;0.10;0.10;;;;;;;21.88;47.50;101214.03;5124212;27;20126;-39
2022/06/21 05:17:14;;;;;;;0.10;0.10;;;;;;;21.87;47.00;101201.28;5104691;27;20101;-41
2022/06/21 05:19:44;;;;;;;0.10;0.10;;;;;;;21.88;47.15;101194.63;5097603;28;20456;-39
2022/06/21 05:22:17;;;;;;;0.10;0.10;;;;;;;21.88;47.75;101193.78;5120094;27;20089;-40
2022/06/21 05:24:45;;;;;;;0.10;0.10;;;;;;;21.88;47.02;101200.16;5099595;28;20130;-36
2022/06/21 05:27:33;;;;;;;0.10;0.10;;;;;;;21.88;46.68;101193.78;5121292;27;20079;-39
2022/06/21 05:30:23;;;;;;;0.10;0.10;;;;;;;21.87;46.10;101194.91;5107270;27;20126;-39
2022/06/21 05:32:53;;;;;;;0.10;0.10;;;;;;;21.85;46.34;101211.84;5112197;27;20496;-36
2022/06/21 05:35:22;;;;;;;0.20;0.20;;;;;;;21.88;46.27;101202.09;5104929;27;20405;-37
2022/06/21 05:37:59;;;;;;;0.10;0.10;;;;;;;21.86;46.07;101191.31;5118380;27;20500;-40
2022/06/21 05:43:42;;;;;;;0.20;0.20;;;;;;;21.86;45.32;101205.19;5159947;27;20194;-41
2022/06/21 05:46:16;;;;;;;0.20;0.20;;;;;;;21.87;45.61;101203.25;5144720;27;20454;-40
2022/06/21 05:48:42;;;;;;;0.10;0.10;;;;;;;21.85;46.06;101198.00;5127459;27;20043;-41
2022/06/21 05:51:14;;;;;;;0.10;0.10;;;;;;;21.87;46.26;101206.00;5138793;27;20066;-40
2022/06/21 05:53:48;;;;;;;0.10;0.10;;;;;;;21.86;46.04;101202.41;5124447;27;20043;-39
2022/06/21 05:56:17;;;;;;;0.10;0.10;;;;;;;21.87;46.74;101206.00;5139017;27;20089;-40
2022/06/21 05:58:47;;;;;;;0.10;0.10;;;;;;;21.87;46.43;101212.38;5142459;27;20125;-40
2022/06/21 06:01:22;;;;;;;0.13;0.13;;;;;;;21.85;46.28;101205.47;5141065;27;20500;-40
2022/06/21 06:03:53;;;;;;;0.10;0.10;;;;;;;21.85;46.43;101220.19;5123748;27;20067;-40
2022/06/21 06:06:21;;;;;;;0.10;0.10;;;;;;;21.85;46.49;101220.19;5142658;27;20476;-40
2022/06/21 06:08:52;;;;;;;0.10;0.10;;;;;;;21.85;46.70;101233.19;5141169;27;20043;-40
2022/06/21 06:12:04;;;;;;;0.10;0.10;;;;;;;21.86;46.11;101229.31;5144740;27;20174;-40
2022/06/21 06:14:20;;;;;;;0.10;0.10;;;;;;;21.86;45.93;101232.91;5126590;27;20070;-40
2022/06/21 06:16:48;;;;;;;0.13;0.13;;;;;;;21.84;45.51;101232.34;5137726;27;20079;-41
2022/06/21 06:19:28;;;;;;;0.10;0.10;;;;;;;21.83;45.28;101230.72;5137159;27;20449;-41
2022/06/21 06:22:14;;;;;;;0.10;0.10;;;;;;;21.71;44.18;101225.53;5126600;27;20089;-38
2022/06/21 06:24:46;;;;;;;0.20;0.20;;;;;;;21.79;44.23;101224.09;5144225;27;20482;-41
2022/06/21 06:27:26;;;;;;;0.10;0.10;;;;;;;21.83;44.61;101224.34;5143139;27;20062;-38
2022/06/21 06:29:54;;;;;;;0.10;0.10;;;;;;;21.83;44.55;101233.50;5133516;27;20180;-37
2022/06/21 06:32:25;;;;;;;0.10;0.10;;;;;;;21.83;44.50;101229.88;5138194;27;20050;-40
2022/06/21 06:34:53;;;;;;;0.10;0.10;;;;;;;21.74;44.51;101224.97;5137298;27;20047;-41
2022/06/21 06:37:25;;;;;;;0.10;0.10;;;;;;;21.82;43.89;101228.25;5121385;27;20070;-41
2022/06/21 06:39:51;;;;;;;0.13;0.13;;;;;;;21.85;44.40;101235.97;5142996;27;20126;-40
2022/06/21 06:42:21;;;;;;;0.17;0.17;;;;;;;21.84;44.94;101237.91;5135659;27;20499;-41
2022/06/21 06:44:50;;;;;;;0.10;0.10;;;;;;;21.85;44.78;101250.66;5120608;27;20047;-40
2022/06/21 06:47:35;;;;;;;0.10;0.10;;;;;;;21.86;45.33;101252.31;5134938;27;20139;-40
2022/06/21 06:50:23;;;;;;;0.10;0.10;;;;;;;21.87;45.52;101234.56;5139793;27;20191;-39
2022/06/21 06:52:55;;;;;;;0.10;0.10;;;;;;;21.87;45.72;101226.25;5120924;27;20057;-40
2022/06/21 06:55:28;;;;;;;0.20;0.20;;;;;;;21.84;44.33;101232.34;5129426;27;20133;-36
2022/06/21 06:58:25;;;;;;;0.10;0.10;;;;;;;21.87;45.16;101231.78;5109387;27;20062;-40
2022/06/21 07:00:56;;;;;;;0.10;0.10;;;;;;;21.90;44.95;101230.38;5118047;27;20086;-43
2022/06/21 07:03:24;;;;;;;0.10;0.10;;;;;;;21.90;45.20;101233.97;5106154;27;20477;-42
2022/06/21 07:05:55;;;;;;;0.10;0.10;;;;;;;21.90;45.40;101228.44;5113870;27;20095;-46
2022/06/21 07:09:00;;;;;;;0.20;0.20;;;;;;;21.87;44.59;101229.00;5098620;27;20119;-46
2022/06/21 07:11:49;;;;;;;0.10;0.10;;;;;;;21.71;44.31;101225.53;5087351;27;20050;-42
2022/06/21 07:14:18;;;;;;;0.10;0.10;;;;;;;21.83;44.03;101227.13;5114536;27;20770;-42
2022/06/21 07:16:44;;;;;;;0.10;0.10;;;;;;;21.85;43.80;101234.03;5116352;27;20182;-39
2022/06/21 07:19:11;;;;;;;0.10;0.10;;;;;;;21.87;44.18;101229.00;5119660;27;20043;-38
2022/06/21 07:21:37;;;;;;;0.10;0.10;;;;;;;21.81;44.38;101237.69;5116348;27;20473;-39
2022/06/21 07:24:04;;;;;;;0.10;0.10;;;;;;;21.87;44.37;101229.00;5107154;27;20743;-40
2022/06/21 07:26:33;;;;;;;0.10;0.10;;;;;;;21.89;43.85;101225.94;5121815;27;20479;-43
2022/06/21 07:29:03;;;;;;;0.10;0.10;;;;;;;21.91;44.46;101218.16;5104590;27;20493;-44
2022/06/21 07:31:32;;;;;;;0.13;0.13;;;;;;;21.90;44.62;101222.06;5125304;27;20294;-43
2022/06/21 07:34:06;;;;;;;0.20;0.20;;;;;;;21.88;44.30;101227.88;5120122;27;20055;-42
2022/06/21 07:36:38;;;;;;;0.10;0.10;;;;;;;21.89;44.33;101220.41;5122462;27;20039;-41
2022/06/21 07:39:08;;;;;;;0.10;0.10;;;;;;;21.90;44.75;101222.91;5124308;27;20590;-44
2022/06/21 07:41:43;;;;;;;0.10;0.10;;;;;;;21.91;44.63;101215.41;5122090;27;20092;-42
2022/06/21 07:44:15;;;;;;;0.10;0.10;;;;;;;21.91;44.48;101218.16;5119283;27;20645;-44
2022/06/21 07:46:45;;;;;;;0.20;0.20;;;;;;;21.89;44.46;101224.03;5097862;28;20142;-43
2022/06/21 07:49:29;;;;;;;0.10;0.10;;;;;;;21.89;43.86;101226.78;5121983;28;20053;-45
2022/06/21 07:52:00;;;;;;;0.10;0.10;;;;;;;21.88;44.28;101216.78;5121371;28;20074;-44
2022/06/21 07:54:30;;;;;;;0.10;0.10;;;;;;;21.91;44.72;101220.94;5106012;28;20075;-42
2022/06/21 07:57:05;;;;;;;0.10;0.10;;;;;;;21.90;44.39;101216.53;5123292;28;20475;-43
2022/06/21 07:59:43;;;;;;;0.10;0.10;;;;;;;21.89;44.13;101225.94;5086476;28;20051;-44
2022/06/21 08:07:41;;;;;;;0.10;0.10;;;;;;;21.95;43.95;101208.16;5111019;27;20150;-40
2022/06/21 08:10:13;;;;;;;0.10;0.10;;;;;;;21.97;44.32;101212.25;5110832;27;20497;-39
2022/06/21 08:12:39;;;;;;;0.10;0.10;;;;;;;21.96;44.59;101207.84;5126805;27;20042;-42
2022/06/21 08:15:05;;;;;;;0.10;0.10;;;;;;;21.97;45.02;101219.75;5125189;27;20324;-43
2022/06/21 08:17:53;;;;;;;0.10;0.10;;;;;;;21.98;44.97;101213.94;5109704;27;20162;-39
2022/06/21 08:20:26;;;;;;;0.20;0.20;;;;;;;21.98;44.98;101202.03;5111854;27;20162;-42
2022/06/21 08:25:59;;;;;;;0.10;0.10;;;;;;;21.99;45.09;101187.03;5154636;27;20206;-38
2022/06/21 08:28:31;;;;;;;0.20;0.20;;;;;;;21.98;44.73;101186.22;5116931;27;20076;-41
2022/06/21 08:30:59;;;;;;;0.10;0.10;;;;;;;21.98;45.02;101194.53;5117090;27;20158;-40
2022/06/21 08:33:47;;;;;;;0.20;0.20;;;;;;;21.99;45.30;101190.63;5134355;27;20035;-40
2022/06/21 08:36:18;;;;;;;0.10;0.10;;;;;;;22.00;45.46;101180.34;5128400;27;20082;-40
2022/06/21 08:38:51;;;;;;;0.15;0.15;;;;;;;21.99;45.23;101173.16;5130553;27;20039;-38
2022/06/21 08:41:52;;;;;;;0.10;0.10;;;;;;;22.00;45.13;101186.72;5126502;27;21141;-41
2022/06/21 08:46:00;;;;;;;0.10;0.10;;;;;;;21.99;45.01;101176.75;5120639;27;20086;-43
2022/06/21 08:48:23;;;;;;;0.10;0.10;;;;;;;21.99;45.29;101151.81;5103300;27;20054;-40
2022/06/21 08:51:30;;;;;;;0.20;0.20;;;;;;;22.00;45.24;101155.41;5123449;27;20066;-45
2022/06/21 08:54:26;;;;;;;0.10;0.10;;;;;;;21.99;45.27;101146.25;5118457;27;21471;-42
2022/06/21 08:57:13;;;;;;;0.10;0.10;;;;;;;22.01;45.18;101140.41;5121308;27;20117;-41
2022/06/21 09:00:03;;;;;;;0.17;0.17;;;;;;;22.02;45.60;101137.34;5133975;27;20137;-42
2022/06/21 09:02:40;;;;;;;0.10;0.10;;;;;;;22.00;45.42;101128.50;5122055;27;20093;-39
2022/06/21 09:05:45;;;;;;;0.10;0.10;;;;;;;22.02;45.49;101117.09;5135243;27;20130;-44
2022/06/21 09:08:40;;;;;;;0.10;0.10;;;;;;;22.03;45.43;101125.13;5117774;27;20141;-41
2022/06/21 09:11:27;;;;;;;0.10;0.10;;;;;;;22.01;45.45;101119.03;5134500;27;20055;-44
2022/06/21 09:14:12;;;;;;;0.10;0.10;;;;;;;22.01;45.24;101105.19;5137014;27;20090;-41
2022/06/21 09:16:55;;;;;;;0.10;0.10;;;;;;;22.03;45.32;101107.69;5133815;27;20169;-39
2022/06/21 09:19:39;;;;;;;0.15;0.15;;;;;;;22.03;45.02;101097.41;5131492;27;20501;-41
2022/06/21 09:22:17;;;;;;;0.10;0.10;;;;;;;22.02;44.91;101090.22;5126461;27;20133;-43
2022/06/21 09:25:02;;;;;;;0.20;0.20;;;;;;;22.03;45.31;101093.81;5131790;27;20560;-38
2022/06/21 09:27:35;;;;;;;0.15;0.15;;;;;;;22.03;45.48;101085.50;5132998;27;20137;-39
2022/06/21 09:30:07;;;;;;;0.10;0.10;;;;;;;22.02;45.28;101081.03;5127796;27;20901;-42
2022/06/21 09:35:41;;;;;;;0.10;0.10;;;;;;;22.05;45.44;101070.19;5153176;27;20452;-42
2022/06/21 09:38:36;;;;;;;0.10;0.10;;;;;;;22.03;45.37;101058.56;5146734;27;20162;-40
2022/06/21 09:41:15;;;;;;;0.15;0.15;;;;;;;22.03;45.22;101066.91;5132127;27;20138;-42
2022/06/21 09:43:53;;;;;;;0.10;0.10;;;;;;;22.05;45.48;101063.81;5127799;27;20078;-40
2022/06/21 09:46:59;;;;;;;0.20;0.20;;;;;;;22.04;45.23;101070.50;5137595;27;20070;-36
2022/06/21 09:49:48;;;;;;;0.10;0.10;;;;;;;22.04;45.14;101059.41;5118826;27;20082;-41
2022/06/21 09:52:30;;;;;;;0.10;0.10;;;;;;;22.04;45.47;101062.16;5136808;27;20054;-42
2022/06/21 09:55:21;;;;;;;0.10;0.10;;;;;;;22.05;45.56;101069.38;5142281;27;20125;-42
2022/06/21 09:58:14;;;;;;;0.10;0.10;;;;;;;21.98;43.82;101060.59;5136202;27;20248;-40
2022/06/21 10:00:44;;;;;;;0.10;0.10;;;;;;;22.02;44.02;101076.34;5119380;27;20165;-42
2022/06/21 10:03:37;;;;;;;0.10;0.10;;;;;;;22.05;44.43;101084.06;5115155;27;20822;-40
2022/06/21 10:06:43;;;;;;;0.10;0.10;;;;;;;22.04;44.65;101078.81;5114086;27;20070;-40
2022/06/21 10:09:36;;;;;;;0.20;0.20;;;;;;;22.03;44.01;101080.75;5115931;27;20161;-39
2022/06/21 10:12:32;;;;;;;0.10;0.10;;;;;;;22.03;43.43;101080.75;5121146;27;20137;-38
2022/06/21 10:15:28;;;;;;;0.10;0.10;;;;;;;22.00;43.08;101078.56;5117962;27;20139;-41
2022/06/21 10:18:34;;;;;;;0.10;0.10;;;;;;;22.03;43.93;101071.63;5099862;27;20181;-40
2022/06/21 10:21:24;;;;;;;0.10;0.10;;;;;;;22.03;43.97;101063.31;5116597;27;20074;-35
2022/06/21 10:24:09;;;;;;;0.13;0.13;;;;;;;22.05;44.46;101063.81;5117653;27;20138;-40
2022/06/21 10:27:05;;;;;;;0.10;0.10;;;;;;;22.05;44.79;101074.91;5136015;27;20134;-41
2022/06/21 10:30:11;;;;;;;0.15;0.15;;;;;;;22.05;44.52;101072.13;5117993;27;20418;-41
2022/06/21 10:33:11;;;;;;;0.10;0.10;;;;;;;22.07;44.44;101071.84;5115786;27;20104;-40
2022/06/21 10:35:47;;;;;;;0.10;0.10;;;;;;;22.06;44.30;101084.88;5120866;27;20043;-40
2022/06/21 10:38:30;;;;;;;0.13;0.13;;;;;;;22.04;44.39;101085.19;5137212;27;20086;-39
2022/06/21 10:46:59;;;;;;;0.10;0.10;;;;;;;22.09;43.56;101075.97;5149475;27;20210;-42
2022/06/21 10:49:48;;;;;;;0.10;0.10;;;;;;;22.14;44.72;101070.38;5146190;27;20125;-40
2022/06/21 10:52:29;;;;;;;0.10;0.10;;;;;;;22.14;44.26;101064.84;5134959;27;20157;-39
2022/06/21 10:55:19;;;;;;;0.10;0.10;;;;;;;22.13;44.88;101059.59;5154466;27;20165;-40
2022/06/21 10:57:58;;;;;;;0.10;0.10;;;;;;;22.12;45.15;101055.16;5153588;27;20054;-41
2022/06/21 11:04:03;;;;;;;0.10;0.10;;;;;;;22.12;45.39;101044.06;5141515;27;20084;-41
2022/06/21 11:06:51;;;;;;;0.17;0.17;;;;;;;22.13;45.69;101043.78;5135898;27;20484;-40
2022/06/21 11:09:34;;;;;;;0.10;0.10;;;;;;;22.12;45.86;101042.13;5144706;27;20096;-41
2022/06/21 11:15:04;;;;;;;0.10;0.10;;;;;;;22.14;46.19;101058.47;5136449;27;20051;-40
2022/06/21 11:17:41;;;;;;;0.10;0.10;;;;;;;22.15;45.96;101062.88;5149924;27;20510;-39
2022/06/21 11:20:20;;;;;;;0.10;0.10;;;;;;;22.14;45.78;101066.78;5160352;27;20078;-39
2022/06/21 11:22:52;;;;;;;0.10;0.10;;;;;;;22.13;45.99;101073.47;5149447;27;20074;-36
2022/06/21 11:25:33;;;;;;;0.10;0.10;;;;;;;22.14;46.04;101069.56;5151361;27;20549;-37
2022/06/21 11:28:07;;;;;;;0.10;0.10;;;;;;;22.13;46.08;101059.59;5142395;27;20186;-38
2022/06/21 11:30:50;;;;;;;0.10;0.10;;;;;;;22.15;45.93;101063.75;5147769;27;20084;-43
2022/06/21 11:33:34;;;;;;;0.10;0.10;;;;;;;22.14;45.92;101059.28;5118575;27;20043;-43
2022/06/21 11:36:37;;;;;;;0.10;0.10;;;;;;;22.14;45.92;101062.06;5132199;27;20459;-43
2022/06/21 11:39:15;;;;;;;0.10;0.10;;;;;;;22.13;45.95;101059.59;5134813;27;20078;-41
2022/06/21 11:42:21;;;;;;;0.10;0.10;;;;;;;22.14;45.81;101045.41;5131773;27;20668;-42
2022/06/21 11:45:10;;;;;;;0.10;0.10;;;;;;;22.18;46.01;101046.47;5129156;27;20551;-42
2022/06/21 11:47:58;;;;;;;0.10;0.10;;;;;;;22.17;45.68;101047.59;5139381;27;20050;-44
2022/06/21 11:50:27;;;;;;;0.10;0.10;;;;;;;22.17;45.76;101044.00;5141884;27;20110;-44
2022/06/21 11:53:25;;;;;;;0.15;0.15;;;;;;;22.15;46.45;101038.78;5152281;27;20438;-43
2022/06/21 11:56:17;;;;;;;0.10;0.10;;;;;;;22.16;45.60;101036.81;5144036;27;20453;-43
2022/06/21 11:59:22;;;;;;;0.10;0.10;;;;;;;22.16;45.89;101037.63;5126475;27;20058;-42
2022/06/21 12:01:56;;;;;;;0.10;0.10;;;;;;;22.17;45.79;101035.69;5114645;27;21371;-41
2022/06/21 12:04:48;;;;;;;0.20;0.20;;;;;;;22.16;45.86;101036.81;5124702;27;20126;-43
2022/06/21 12:07:22;;;;;;;0.10;0.10;;;;;;;22.17;45.97;101035.69;5126141;27;20166;-44
2022/06/21 12:09:55;;;;;;;0.10;0.10;;;;;;;22.19;45.44;101038.97;5106286;27;20500;-39
2022/06/21 12:12:38;;;;;;;0.10;0.10;;;;;;;22.25;45.65;101038.63;5123006;27;20363;-41
2022/06/21 12:15:20;;;;;;;0.10;0.10;;;;;;;22.24;45.63;101028.66;5125416;27;20177;-42
2022/06/21 12:17:56;;;;;;;0.10;0.10;;;;;;;22.23;45.59;101023.38;5118842;27;20792;-45
2022/06/21 12:20:27;;;;;;;0.10;0.10;;;;;;;22.19;45.76;101027.88;5106322;27;20531;-42
2022/06/21 12:23:02;;;;;;;0.10;0.10;;;;;;;22.22;45.68;101016.19;5137801;27;20043;-42
2022/06/21 12:25:28;;;;;;;0.10;0.10;;;;;;;22.24;45.66;101013.97;5141549;27;20134;-44
2022/06/21 12:27:59;;;;;;;0.10;0.10;;;;;;;22.28;45.39;101012.25;5137664;27;20150;-39
2022/06/21 12:30:45;;;;;;;0.10;0.10;;;;;;;22.31;45.88;101000.53;5124276;27;20046;-40
2022/06/21 12:33:16;;;;;;;0.10;0.10;;;;;;;22.29;45.96;101002.78;5132788;27;20042;-39
2022/06/21 12:38:40;;;;;;;0.10;0.10;;;;;;;22.24;46.31;100986.22;5170386;27;20217;-40